Terminal Aerodrome Forecast
Issued by NWS Cleveland, OH

Home | Current Version | Previous Version | Text Only | Print | Product List | Glossary Off
Versions: 1 2 3 4 5 6 7 8 9 10 11 12 13 14 15 16 17 18 19 20 21 22 23 24 25 26 27 28 29 30 31 32 33 34 35 36 37 38 39 40 41 42

000
FTUS41 KCLE 031200 AAB
TAFCLE
TAF AMD
KCLE 031240Z 0313/0418 14010KT 6SM -SN OVC040
     FM031400 14010KT 3SM -SN BKN025 OVC040
     FM031630 14011KT 3SM -FZRASNPL BR BKN015 OVC040
     FM031900 18015KT 2SM -RA BR OVC009 WS020/23045KT
     FM040100 22015G25KT 4SM -RA BR OVC006
     FM040700 27014KT 4SM -SN OVC015
     FM041400 28014KT P6SM VCSH BKN020 OVC150=

USA.gov is the U.S. government's official web portal to all federal, state and local government web resources and services.